Archival Weather

Norman Y Mineta San Jose Intl

San Jose, California (KSJC)

Report from: Tuesday, February 13, 2024 3:19 AM PST
Current time: Friday, June 21, 2024 1:27 AM PDT

Current weather – Weather history – Daily summaries
Weather forecast

Temperature8.9°C (48.0°F)
Dew point5.0°C (41.0°F)
Winds Calm
Visibility10 mi. (16.1 km)
Clouds Ceiling: Broken clouds 1,600 ft. (488 m)
Altimeter30.05 in.Hg (1018 mB)
Relative humidity77 %
Density altitude-751 ft. (-229 m)
Remarks Fully automated report
Automated weather observing station with precipitation discriminator
Flight conditions Marginal Visual Meteorological Conditions
Raw dataKSJC 131119Z AUTO 00000KT 10SM BKN016 09/05 A3005 RMK AO2 T00890050
An error has occurred. This application may no longer respond until reloaded. Reload 🗙